Time;durP1;ratioP1;P1;durP2;ratioP2;P2;SDS_P1;SDS_P2;PMS_P1;PMS_P2;Temp;Humidity;BMP_temperature;BMP_pressure;BME280_temperature;BME280_humidity;BME280_pressure;Samples;Min_cycle;Max_cycle;Signal;HPM_P1;HPM_P2
2023/10/16 00:02:59;;;;;;;;;;;8.10;99.90;;;;;;8398336;28;19924;-70
2023/10/16 00:07:01;;;;;;;;;;;8.10;99.90;;;;;;8407410;28;19924;-71
2023/10/16 00:11:03;;;;;;;;;;;8.00;99.90;;;;;;8407338;28;20440;-70
2023/10/16 00:15:05;;;;;;;;;;;8.00;99.90;;;;;;8397930;28;19924;-70
2023/10/16 00:19:09;;;;;;;;;;;8.00;99.90;;;;;;8400543;28;19940;-70
2023/10/16 00:23:11;;;;;;;;;;;7.90;99.90;;;;;;8410294;28;20014;-71
2023/10/16 00:27:16;;;;;;;;;;;7.90;99.90;;;;;;8395622;28;19932;-70
2023/10/16 00:31:20;;;;;;;;;;;7.90;99.90;;;;;;8411292;28;19928;-71
2023/10/16 00:35:22;;;;;;;;;;;7.90;99.90;;;;;;8420244;28;20363;-70
2023/10/16 00:39:28;;;;;;;;;;;7.90;99.90;;;;;;8389139;28;19928;-70
2023/10/16 00:43:33;;;;;;;;;;;8.00;99.90;;;;;;8407226;28;19990;-70
2023/10/16 00:47:35;;;;;;;;;;;7.90;99.90;;;;;;8393933;28;19925;-70
2023/10/16 00:51:41;;;;;;;;;;;7.90;99.90;;;;;;8414984;28;19924;-71
2023/10/16 00:55:43;;;;;;;;;;;8.00;99.90;;;;;;8401861;28;19931;-70
2023/10/16 00:59:45;;;;;;;;;;;8.00;99.90;;;;;;8411366;28;20422;-70
2023/10/16 01:03:48;;;;;;;;;;;8.00;99.90;;;;;;8419831;28;20395;-70
2023/10/16 01:13:12;;;;;;;;;;;8.00;99.90;;;;;;8378370;28;19939;-70
2023/10/16 01:17:14;;;;;;;;;;;8.10;99.90;;;;;;8409874;28;20287;-70
2023/10/16 01:21:17;;;;;;;;;;;8.10;99.90;;;;;;8416078;28;19928;-70
2023/10/16 01:25:18;;;;;;;;;;;8.10;99.90;;;;;;8400251;28;19924;-70
2023/10/16 01:29:20;;;;;;;;;;;8.10;99.90;;;;;;8417803;28;19924;-70
2023/10/16 01:33:23;;;;;;;;;;;8.10;99.90;;;;;;8418867;28;19924;-70
2023/10/16 01:37:25;;;;;;;;;;;8.10;99.90;;;;;;8393953;28;19977;-70
2023/10/16 01:41:30;;;;;;;;;;;8.10;99.90;;;;;;8388179;28;20015;-70
2023/10/16 01:45:32;;;;;;;;;;;8.20;99.90;;;;;;8411368;28;19975;-70
2023/10/16 01:49:34;;;;;;;;;;;8.20;99.90;;;;;;8413358;28;19997;-70
2023/10/16 01:53:43;;;;;;;;;;;8.20;99.90;;;;;;8411554;28;19931;-71
2023/10/16 01:57:44;;;;;;;;;;;8.20;99.90;;;;;;8421261;28;19935;-70
2023/10/16 02:01:47;;;;;;;;;;;8.20;99.90;;;;;;8409364;28;20398;-70
2023/10/16 02:05:48;;;;;;;;;;;8.20;99.90;;;;;;8413769;28;19924;-71
2023/10/16 02:09:51;;;;;;;;;;;8.20;99.90;;;;;;8412578;28;21041;-70
2023/10/16 02:13:52;;;;;;;;;;;8.30;99.90;;;;;;8396982;28;19969;-70
2023/10/16 02:17:54;;;;;;;;;;;8.30;99.90;;;;;;8398896;28;20322;-71
2023/10/16 02:21:56;;;;;;;;;;;8.30;99.90;;;;;;8391863;28;19928;-70
2023/10/16 02:26:01;;;;;;;;;;;8.30;99.90;;;;;;8421096;28;19931;-70
2023/10/16 02:34:26;;;;;;;;;;;8.20;99.90;;;;;;8409874;28;20454;-71
2023/10/16 02:38:28;;;;;;;;;;;8.20;99.90;;;;;;8415595;28;19924;-70
2023/10/16 02:42:30;;;;;;;;;;;8.30;99.90;;;;;;8401418;28;19929;-70
2023/10/16 02:46:31;;;;;;;;;;;8.40;99.90;;;;;;8410279;28;19936;-70
2023/10/16 02:50:33;;;;;;;;;;;8.40;99.90;;;;;;8419124;28;20000;-70
2023/10/16 02:54:34;;;;;;;;;;;8.40;99.90;;;;;;8414379;28;19924;-70
2023/10/16 03:02:57;;;;;;;;;;;8.30;99.90;;;;;;8414201;28;19932;-71
2023/10/16 03:06:59;;;;;;;;;;;8.30;99.90;;;;;;8418659;28;19924;-70
2023/10/16 03:11:05;;;;;;;;;;;8.30;99.90;;;;;;8406650;28;20379;-70
2023/10/16 03:15:20;;;;;;;;;;;8.30;99.90;;;;;;8398715;28;20383;-70
2023/10/16 03:19:23;;;;;;;;;;;8.30;99.90;;;;;;8417222;28;20401;-70
2023/10/16 03:23:24;;;;;;;;;;;8.40;99.90;;;;;;8409298;28;19943;-70
2023/10/16 03:27:29;;;;;;;;;;;8.40;99.90;;;;;;8408948;28;19943;-70
2023/10/16 03:31:36;;;;;;;;;;;8.40;99.90;;;;;;8423896;28;20375;-70
2023/10/16 03:35:41;;;;;;;;;;;8.30;99.90;;;;;;8420096;28;19974;-70
2023/10/16 03:39:44;;;;;;;;;;;8.30;99.90;;;;;;8420878;28;20485;-70
2023/10/16 03:43:47;;;;;;;;;;;8.30;99.90;;;;;;8416211;28;20458;-70
2023/10/16 03:47:52;;;;;;;;;;;8.40;99.90;;;;;;8425347;28;19925;-70
2023/10/16 03:51:53;;;;;;;;;;;8.40;99.90;;;;;;8413454;28;19932;-70
2023/10/16 03:55:55;;;;;;;;;;;8.40;99.90;;;;;;8422854;28;20302;-71
2023/10/16 03:59:57;;;;;;;;;;;8.50;99.90;;;;;;8398983;28;19924;-70
2023/10/16 04:04:03;;;;;;;;;;;8.50;99.90;;;;;;8409962;28;19925;-70
2023/10/16 04:08:05;;;;;;;;;;;8.50;99.90;;;;;;8392380;28;19924;-70
2023/10/16 04:12:13;;;;;;;;;;;8.50;99.90;;;;;;8392368;28;20000;-71
2023/10/16 04:17:04;;;;;;;;;;;8.50;99.90;;;;;;8425988;28;19924;-70
2023/10/16 04:20:43;;;;;;;;;;;8.50;99.90;;;;;;8409798;28;19930;-70
2023/10/16 04:24:45;;;;;;;;;;;8.50;99.90;;;;;;8406711;28;19940;-70
2023/10/16 04:33:16;;;;;;;;;;;8.40;99.90;;;;;;8405122;28;19978;-71
2023/10/16 04:37:29;;;;;;;;;;;8.30;99.90;;;;;;8420996;28;19932;-70
2023/10/16 04:45:59;;;;;;;;;;;8.30;99.90;;;;;;8420101;28;20379;-70
2023/10/16 04:50:08;;;;;;;;;;;8.20;99.90;;;;;;8419370;28;19960;-70
2023/10/16 04:54:27;;;;;;;;;;;8.20;99.90;;;;;;8425929;28;19927;-70
2023/10/16 04:58:38;;;;;;;;;;;8.20;99.90;;;;;;8404889;28;19985;-70
2023/10/16 05:02:41;;;;;;;;;;;8.20;99.90;;;;;;8408633;28;19928;-70
2023/10/16 05:06:49;;;;;;;;;;;8.10;99.90;;;;;;8423161;28;19924;-70
2023/10/16 05:10:51;;;;;;;;;;;8.10;99.90;;;;;;8426337;28;19924;-71
2023/10/16 05:19:14;;;;;;;;;;;8.10;99.90;;;;;;8423005;28;19924;-70
2023/10/16 06:15:21;;;;;;;;;;;8.30;99.90;;;;;;8414753;28;19928;-70
2023/10/16 06:19:23;;;;;;;;;;;8.30;99.90;;;;;;8395924;28;20299;-70
2023/10/16 06:23:28;;;;;;;;;;;8.20;99.90;;;;;;8394426;28;19924;-70
2023/10/16 06:27:33;;;;;;;;;;;8.20;99.90;;;;;;8424553;28;19950;-70
2023/10/16 06:31:49;;;;;;;;;;;8.20;99.90;;;;;;8414343;28;20389;-70
2023/10/16 06:35:52;;;;;;;;;;;8.20;99.90;;;;;;8407472;28;19924;-70
2023/10/16 06:39:54;;;;;;;;;;;8.20;99.90;;;;;;8421049;28;19925;-70
2023/10/16 06:44:00;;;;;;;;;;;8.30;99.90;;;;;;8405383;28;19999;-70
2023/10/16 06:48:08;;;;;;;;;;;8.30;99.90;;;;;;8423323;28;20299;-70
2023/10/16 06:52:12;;;;;;;;;;;8.40;99.90;;;;;;8420290;28;19924;-70
2023/10/16 06:56:14;;;;;;;;;;;8.40;99.90;;;;;;8425940;28;20379;-70
2023/10/16 07:00:50;;;;;;;;;;;8.50;99.90;;;;;;8407577;28;20287;-70
2023/10/16 07:04:47;;;;;;;;;;;8.50;99.90;;;;;;8426255;28;19928;-70
2023/10/16 07:08:51;;;;;;;;;;;8.60;99.90;;;;;;8421353;28;20405;-70
2023/10/16 07:12:59;;;;;;;;;;;8.60;99.90;;;;;;8422973;28;20382;-71
2023/10/16 07:17:03;;;;;;;;;;;8.70;99.90;;;;;;8409756;28;19932;-70
2023/10/16 07:25:25;;;;;;;;;;;8.90;99.90;;;;;;8424009;28;19963;-70
2023/10/16 07:29:29;;;;;;;;;;;8.90;99.90;;;;;;8405669;28;19924;-70
2023/10/16 07:33:31;;;;;;;;;;;9.00;99.90;;;;;;8416929;28;19928;-70
2023/10/16 07:37:33;;;;;;;;;;;9.00;99.90;;;;;;8417162;28;19970;-70
2023/10/16 07:41:37;;;;;;;;;;;9.10;99.90;;;;;;8429740;28;19924;-70
2023/10/16 07:45:44;;;;;;;;;;;9.20;99.90;;;;;;8431720;28;19924;-70
2023/10/16 07:49:46;;;;;;;;;;;9.30;99.90;;;;;;8398100;28;19924;-70
2023/10/16 07:53:48;;;;;;;;;;;9.40;99.90;;;;;;8417290;28;19924;-70
2023/10/16 07:57:51;;;;;;;;;;;9.50;99.90;;;;;;8410831;28;19924;-70
2023/10/16 08:01:54;;;;;;;;;;;9.60;99.90;;;;;;8417942;28;19931;-70
2023/10/16 08:05:55;;;;;;;;;;;9.70;99.90;;;;;;8423922;28;20283;-70
2023/10/16 08:10:28;;;;;;;;;;;9.80;99.90;;;;;;8402018;28;19931;-70
2023/10/16 08:14:19;;;;;;;;;;;9.90;99.90;;;;;;8426436;28;19928;-71
2023/10/16 08:18:25;;;;;;;;;;;10.00;99.90;;;;;;8423046;28;19975;-70
2023/10/16 08:22:27;;;;;;;;;;;10.10;99.90;;;;;;8417492;28;19928;-70
2023/10/16 08:26:28;;;;;;;;;;;10.20;99.90;;;;;;8424313;28;19977;-70
2023/10/16 08:30:33;;;;;;;;;;;10.30;99.90;;;;;;8426462;28;19924;-70
2023/10/16 08:34:35;;;;;;;;;;;10.40;99.90;;;;;;8416621;28;19924;-70
2023/10/16 08:38:39;;;;;;;;;;;10.50;99.90;;;;;;8422608;28;19950;-70
2023/10/16 08:42:41;;;;;;;;;;;10.60;99.90;;;;;;8408975;28;19931;-70
2023/10/16 08:47:29;;;;;;;;;;;10.60;99.90;;;;;;8401791;28;19928;-70
2023/10/16 08:51:11;;;;;;;;;;;10.70;99.90;;;;;;8419930;28;19979;-70
2023/10/16 08:55:16;;;;;;;;;;;10.80;99.90;;;;;;8427370;28;19924;-70
2023/10/16 08:59:18;;;;;;;;;;;10.90;99.90;;;;;;8422249;28;19931;-70
2023/10/16 09:03:20;;;;;;;;;;;11.00;99.90;;;;;;8407493;28;20379;-70
2023/10/16 09:07:25;;;;;;;;;;;11.10;99.90;;;;;;8415732;28;21602;-70
2023/10/16 09:11:26;;;;;;;;;;;11.20;99.90;;;;;;8413119;28;19927;-70
2023/10/16 09:15:28;;;;;;;;;;;11.30;99.90;;;;;;8418761;28;19946;-70
2023/10/16 09:19:45;;;;;;;;;;;11.50;99.90;;;;;;8384364;28;20299;-70
2023/10/16 09:23:59;;;;;;;;;;;11.60;99.90;;;;;;8375040;28;20011;-70
2023/10/16 09:28:01;;;;;;;;;;;11.80;99.90;;;;;;8388322;28;19932;-70
2023/10/16 09:32:06;;;;;;;;;;;11.90;99.90;;;;;;8400483;28;19956;-71
2023/10/16 09:36:17;;;;;;;;;;;12.00;99.90;;;;;;8386254;28;19975;-70
2023/10/16 09:40:19;;;;;;;;;;;12.00;99.90;;;;;;8388725;28;20092;-70
2023/10/16 09:44:37;;;;;;;;;;;12.00;99.90;;;;;;8388240;28;19924;-70
2023/10/16 09:48:40;;;;;;;;;;;12.00;99.90;;;;;;8385759;28;19932;-70
2023/10/16 09:52:45;;;;;;;;;;;11.90;99.90;;;;;;8384749;28;19970;-70
2023/10/16 09:56:52;;;;;;;;;;;11.90;99.90;;;;;;8385518;28;20023;-70
2023/10/16 10:01:02;;;;;;;;;;;11.90;99.90;;;;;;8387883;28;19928;-70
2023/10/16 10:05:09;;;;;;;;;;;11.90;99.90;;;;;;8387726;28;19978;-70
2023/10/16 10:13:16;;;;;;;;;;;12.10;99.90;;;;;;8382831;28;19954;-70
2023/10/16 10:17:21;;;;;;;;;;;12.30;99.90;;;;;;8399816;28;20445;-70
2023/10/16 10:21:30;;;;;;;;;;;12.60;99.90;;;;;;8389319;28;19931;-70
2023/10/16 10:25:37;;;;;;;;;;;12.90;99.90;;;;;;8387494;28;20168;-70
2023/10/16 10:29:41;;;;;;;;;;;13.20;99.90;;;;;;8384444;28;20375;-70
2023/10/16 10:33:58;;;;;;;;;;;13.40;99.90;;;;;;8391226;28;20360;-70
2023/10/16 10:38:07;;;;;;;;;;;13.60;99.90;;;;;;8391077;28;19924;-70
2023/10/16 10:42:23;;;;;;;;;;;13.80;99.90;;;;;;8392414;28;20295;-70
2023/10/16 10:46:25;;;;;;;;;;;14.10;99.90;;;;;;8377857;28;20311;-70
2023/10/16 10:50:28;;;;;;;;;;;14.30;99.90;;;;;;8391448;28;19967;-70
2023/10/16 10:54:30;;;;;;;;;;;14.60;99.90;;;;;;8397793;28;19924;-71
2023/10/16 10:58:32;;;;;;;;;;;14.80;99.90;;;;;;8399340;28;20342;-70
2023/10/16 11:06:53;;;;;;;;;;;15.30;99.90;;;;;;8394383;28;20350;-70
2023/10/16 11:10:56;;;;;;;;;;;15.40;99.90;;;;;;8390619;28;19993;-70
2023/10/16 11:14:58;;;;;;;;;;;15.50;99.90;;;;;;8395377;28;19928;-70
2023/10/16 11:19:00;;;;;;;;;;;15.60;99.90;;;;;;8399399;28;20441;-70
2023/10/16 11:23:12;;;;;;;;;;;15.60;99.90;;;;;;8400680;28;19925;-70
2023/10/16 11:27:14;;;;;;;;;;;15.70;99.90;;;;;;8404025;28;19928;-70
2023/10/16 11:31:18;;;;;;;;;;;15.70;99.90;;;;;;8383907;28;20402;-70
2023/10/16 11:35:21;;;;;;;;;;;15.60;99.90;;;;;;8400580;28;19931;-70
2023/10/16 11:39:23;;;;;;;;;;;15.60;99.90;;;;;;8398260;28;19931;-70
2023/10/16 11:43:24;;;;;;;;;;;15.50;99.90;;;;;;8393103;28;19925;-70
2023/10/16 11:47:36;;;;;;;;;;;15.20;99.90;;;;;;8395032;28;19928;-70
2023/10/16 11:51:37;;;;;;;;;;;15.00;99.90;;;;;;8413569;28;19937;-70
2023/10/16 11:55:39;;;;;;;;;;;14.70;99.90;;;;;;8394455;28;19932;-70
2023/10/16 11:59:41;;;;;;;;;;;14.50;99.90;;;;;;8395650;28;19925;-70
2023/10/16 12:03:43;;;;;;;;;;;14.40;99.90;;;;;;8397934;28;19947;-70
2023/10/16 12:07:48;;;;;;;;;;;14.40;99.90;;;;;;8397907;28;20387;-70
2023/10/16 12:11:51;;;;;;;;;;;14.40;99.90;;;;;;8389634;28;20311;-70
2023/10/16 12:15:52;;;;;;;;;;;14.40;99.90;;;;;;8397358;28;19932;-70
2023/10/16 12:19:57;;;;;;;;;;;14.30;99.90;;;;;;8401463;28;20010;-70
2023/10/16 12:24:01;;;;;;;;;;;14.30;99.90;;;;;;8404655;28;20296;-70
2023/10/16 12:28:07;;;;;;;;;;;14.20;99.90;;;;;;8394145;28;20282;-70
2023/10/16 12:32:10;;;;;;;;;;;14.20;99.90;;;;;;8393758;28;19931;-70
2023/10/16 12:36:12;;;;;;;;;;;14.10;99.90;;;;;;8398943;28;19925;-70
2023/10/16 12:40:34;;;;;;;;;;;14.10;99.90;;;;;;8397426;28;19963;-70
2023/10/16 12:44:36;;;;;;;;;;;14.10;99.90;;;;;;8396802;28;19924;-70
2023/10/16 12:48:38;;;;;;;;;;;14.20;99.90;;;;;;8398790;28;19924;-70
2023/10/16 12:52:40;;;;;;;;;;;14.20;99.90;;;;;;8400297;28;20394;-70
2023/10/16 12:56:43;;;;;;;;;;;14.20;99.90;;;;;;8385047;28;20541;-70
2023/10/16 13:00:46;;;;;;;;;;;14.30;99.90;;;;;;8394255;28;19932;-70
2023/10/16 13:04:49;;;;;;;;;;;14.30;99.90;;;;;;8392980;28;19925;-70
2023/10/16 13:08:53;;;;;;;;;;;14.40;99.90;;;;;;8397880;28;20596;-70
2023/10/16 13:12:56;;;;;;;;;;;14.40;99.90;;;;;;8372689;28;20683;-70
2023/10/16 13:16:58;;;;;;;;;;;14.50;99.90;;;;;;8391818;28;19924;-70
2023/10/16 13:21:15;;;;;;;;;;;14.50;99.90;;;;;;8396031;28;19959;-70
2023/10/16 13:25:17;;;;;;;;;;;14.50;99.90;;;;;;8386025;28;19929;-70
2023/10/16 13:29:20;;;;;;;;;;;14.60;99.90;;;;;;8396405;28;19924;-70
2023/10/16 13:33:22;;;;;;;;;;;14.60;99.90;;;;;;8390435;28;20391;-70
2023/10/16 13:37:24;;;;;;;;;;;14.60;99.90;;;;;;8398393;28;19924;-70
2023/10/16 13:41:28;;;;;;;;;;;14.60;99.90;;;;;;8398580;28;19928;-70
2023/10/16 13:45:29;;;;;;;;;;;14.60;99.90;;;;;;8390106;28;20552;-70
2023/10/16 13:49:37;;;;;;;;;;;14.60;99.90;;;;;;8392727;28;19932;-70
2023/10/16 13:53:39;;;;;;;;;;;14.60;99.90;;;;;;8386132;28;19929;-70
2023/10/16 13:57:44;;;;;;;;;;;14.60;99.90;;;;;;8392221;28;19924;-70
2023/10/16 14:01:46;;;;;;;;;;;14.60;99.90;;;;;;8387316;28;19924;-70
2023/10/16 14:05:48;;;;;;;;;;;14.50;99.90;;;;;;8395658;28;20364;-70
2023/10/16 14:09:50;;;;;;;;;;;14.60;99.90;;;;;;8385907;28;20409;-70
2023/10/16 14:13:52;;;;;;;;;;;14.60;99.90;;;;;;8383992;28;20366;-70
2023/10/16 14:17:53;;;;;;;;;;;14.70;99.90;;;;;;8387753;28;20528;-70
2023/10/16 14:21:55;;;;;;;;;;;14.70;99.90;;;;;;8383767;28;19975;-70
2023/10/16 14:26:00;;;;;;;;;;;14.70;99.90;;;;;;8378414;28;19929;-70
2023/10/16 14:30:02;;;;;;;;;;;14.80;99.90;;;;;;8395897;28;20355;-70
2023/10/16 14:34:05;;;;;;;;;;;14.80;99.90;;;;;;8384632;28;19931;-70
2023/10/16 14:38:07;;;;;;;;;;;14.80;99.90;;;;;;8389262;28;19931;-70
2023/10/16 14:42:11;;;;;;;;;;;14.90;99.90;;;;;;8381052;28;19924;-70
2023/10/16 14:46:13;;;;;;;;;;;14.80;99.90;;;;;;8370299;28;20429;-70
2023/10/16 14:50:14;;;;;;;;;;;14.80;99.90;;;;;;8396792;28;19975;-70
2023/10/16 14:54:16;;;;;;;;;;;14.70;99.90;;;;;;8410906;28;19982;-70
2023/10/16 14:58:21;;;;;;;;;;;14.70;99.90;;;;;;8376735;28;19928;-70
2023/10/16 15:02:44;;;;;;;;;;;14.60;99.90;;;;;;8396779;28;20040;-70
2023/10/16 15:06:46;;;;;;;;;;;14.50;99.90;;;;;;8379429;28;20368;-70
2023/10/16 15:10:49;;;;;;;;;;;14.50;99.90;;;;;;8384679;28;20437;-70
2023/10/16 15:14:53;;;;;;;;;;;14.50;99.90;;;;;;8394278;28;19939;-70
2023/10/16 15:18:55;;;;;;;;;;;14.40;99.90;;;;;;8392251;28;20291;-70
2023/10/16 15:22:57;;;;;;;;;;;14.40;99.90;;;;;;8386820;28;19974;-70
2023/10/16 15:26:58;;;;;;;;;;;14.30;99.90;;;;;;8405797;28;21374;-70
2023/10/16 15:31:01;;;;;;;;;;;14.30;99.90;;;;;;8388228;28;19993;-70
2023/10/16 15:35:03;;;;;;;;;;;14.30;99.90;;;;;;8391799;28;19927;-70
2023/10/16 15:39:05;;;;;;;;;;;14.30;99.90;;;;;;8393709;28;20440;-70
2023/10/16 15:43:07;;;;;;;;;;;14.30;99.90;;;;;;8383110;28;19972;-70
2023/10/16 15:47:08;;;;;;;;;;;14.30;99.90;;;;;;8390770;28;19932;-70
2023/10/16 15:51:10;;;;;;;;;;;14.20;99.90;;;;;;8388748;28;19928;-70
2023/10/16 15:55:17;;;;;;;;;;;14.10;99.90;;;;;;8389627;28;19929;-70
2023/10/16 15:59:21;;;;;;;;;;;14.00;99.90;;;;;;8384899;28;19928;-70
2023/10/16 16:03:23;;;;;;;;;;;13.90;99.90;;;;;;8404812;28;20019;-70
2023/10/16 16:07:26;;;;;;;;;;;13.80;99.90;;;;;;8393198;28;19979;-70
2023/10/16 16:11:29;;;;;;;;;;;13.70;99.90;;;;;;8372133;28;19925;-70
2023/10/16 16:15:31;;;;;;;;;;;13.60;99.90;;;;;;8393500;28;19928;-70
2023/10/16 16:19:32;;;;;;;;;;;13.60;99.90;;;;;;8391249;28;19960;-70
2023/10/16 16:23:36;;;;;;;;;;;13.50;99.90;;;;;;8407891;28;19939;-70
2023/10/16 16:27:39;;;;;;;;;;;13.30;99.90;;;;;;8405461;28;19933;-70
2023/10/16 16:31:41;;;;;;;;;;;13.20;99.90;;;;;;8390100;28;19928;-70
2023/10/16 16:35:43;;;;;;;;;;;13.10;99.90;;;;;;8392573;28;19924;-70
2023/10/16 16:39:45;;;;;;;;;;;13.00;99.90;;;;;;8397827;28;20436;-70
2023/10/16 16:43:47;;;;;;;;;;;12.80;99.90;;;;;;8399847;28;20034;-70
2023/10/16 16:47:49;;;;;;;;;;;12.70;99.90;;;;;;8386987;28;19925;-70
2023/10/16 16:51:51;;;;;;;;;;;12.60;99.90;;;;;;8390602;28;19924;-70
2023/10/16 16:55:53;;;;;;;;;;;12.40;99.90;;;;;;8372877;28;19928;-70
2023/10/16 16:59:55;;;;;;;;;;;12.30;99.90;;;;;;8375578;28;20434;-70
2023/10/16 17:03:56;;;;;;;;;;;12.20;99.90;;;;;;8396850;28;20018;-70
2023/10/16 17:07:58;;;;;;;;;;;12.10;99.90;;;;;;8397597;28;19928;-70
2023/10/16 17:12:00;;;;;;;;;;;12.00;99.90;;;;;;8388522;28;20306;-70
2023/10/16 17:16:03;;;;;;;;;;;11.90;99.90;;;;;;8387859;28;20039;-70
2023/10/16 17:20:05;;;;;;;;;;;11.80;99.90;;;;;;8368362;28;19924;-70
2023/10/16 17:24:10;;;;;;;;;;;11.80;99.90;;;;;;8391083;28;19924;-70
2023/10/16 17:28:16;;;;;;;;;;;11.70;99.90;;;;;;8380092;28;20555;-70
2023/10/16 17:32:18;;;;;;;;;;;11.70;99.90;;;;;;8390007;28;20486;-70
2023/10/16 17:36:19;;;;;;;;;;;11.60;99.90;;;;;;8395342;28;20009;-70
2023/10/16 17:40:21;;;;;;;;;;;11.50;99.90;;;;;;8399081;28;19938;-70
2023/10/16 17:44:24;;;;;;;;;;;11.50;99.90;;;;;;8394384;28;19925;-70
2023/10/16 17:48:26;;;;;;;;;;;11.50;99.90;;;;;;8397733;28;19981;-70
2023/10/16 17:52:33;;;;;;;;;;;11.40;99.90;;;;;;8395632;28;19936;-70
2023/10/16 17:56:35;;;;;;;;;;;11.40;99.90;;;;;;8400957;28;19924;-70
2023/10/16 18:00:40;;;;;;;;;;;11.30;99.90;;;;;;8395320;28;20015;-70
2023/10/16 18:04:42;;;;;;;;;;;11.30;99.90;;;;;;8398681;28;19932;-70
2023/10/16 18:08:46;;;;;;;;;;;11.20;99.90;;;;;;8396815;28;19946;-70
2023/10/16 18:12:48;;;;;;;;;;;11.20;99.90;;;;;;8409563;28;19924;-70
2023/10/16 18:16:50;;;;;;;;;;;11.10;99.90;;;;;;8385365;28;20011;-71
2023/10/16 18:20:51;;;;;;;;;;;11.00;99.90;;;;;;8387961;28;19929;-70
2023/10/16 18:24:55;;;;;;;;;;;11.00;99.90;;;;;;8384575;28;19924;-70
2023/10/16 18:28:58;;;;;;;;;;;11.00;99.90;;;;;;8369758;28;19943;-70
2023/10/16 18:33:00;;;;;;;;;;;11.00;99.90;;;;;;8371431;28;20485;-70
2023/10/16 18:37:04;;;;;;;;;;;11.00;99.90;;;;;;8391845;28;19963;-70
2023/10/16 18:41:07;;;;;;;;;;;11.00;99.90;;;;;;8398943;28;19989;-71
2023/10/16 18:45:10;;;;;;;;;;;10.90;99.90;;;;;;8398856;28;19931;-70
2023/10/16 18:49:12;;;;;;;;;;;11.00;99.90;;;;;;8396332;28;20470;-70
2023/10/16 18:53:13;;;;;;;;;;;11.00;99.90;;;;;;8398168;28;20515;-70
2023/10/16 18:57:16;;;;;;;;;;;11.00;99.90;;;;;;8396424;28;20399;-70
2023/10/16 19:01:18;;;;;;;;;;;10.90;99.90;;;;;;8387466;28;19925;-70
2023/10/16 19:05:20;;;;;;;;;;;10.90;99.90;;;;;;8399709;28;20395;-70
2023/10/16 19:09:22;;;;;;;;;;;10.90;99.90;;;;;;8387085;28;20639;-70
2023/10/16 19:13:25;;;;;;;;;;;10.90;99.90;;;;;;8405445;28;19979;-71
2023/10/16 19:17:27;;;;;;;;;;;10.80;99.90;;;;;;8415556;28;19944;-70
2023/10/16 19:21:29;;;;;;;;;;;10.80;99.90;;;;;;8422861;28;19928;-71
2023/10/16 19:25:31;;;;;;;;;;;10.80;99.90;;;;;;8403375;28;20315;-70
2023/10/16 19:29:32;;;;;;;;;;;10.70;99.90;;;;;;8399213;28;19964;-70
2023/10/16 19:33:36;;;;;;;;;;;10.60;99.90;;;;;;8391610;28;20272;-70
2023/10/16 19:37:38;;;;;;;;;;;10.60;99.90;;;;;;8397340;28;19947;-70
2023/10/16 19:41:39;;;;;;;;;;;10.60;99.90;;;;;;8393124;28;23745;-70
2023/10/16 19:45:43;;;;;;;;;;;10.50;99.90;;;;;;8384243;28;19932;-70
2023/10/16 19:49:45;;;;;;;;;;;10.50;99.90;;;;;;8402977;28;19928;-70
2023/10/16 19:53:48;;;;;;;;;;;10.40;99.90;;;;;;8402013;28;19931;-70
2023/10/16 19:57:51;;;;;;;;;;;10.40;99.90;;;;;;8398489;28;19969;-70
2023/10/16 20:01:53;;;;;;;;;;;10.30;99.90;;;;;;8395344;28;20426;-70
2023/10/16 20:05:54;;;;;;;;;;;10.30;99.90;;;;;;8379852;28;19932;-70
2023/10/16 20:09:56;;;;;;;;;;;10.30;99.90;;;;;;8388851;28;20309;-70
2023/10/16 20:13:58;;;;;;;;;;;10.20;99.90;;;;;;8386500;28;20298;-70
2023/10/16 20:18:00;;;;;;;;;;;10.20;99.90;;;;;;8391719;28;20028;-70
2023/10/16 20:22:06;;;;;;;;;;;10.10;99.90;;;;;;8387969;28;19928;-70
2023/10/16 20:26:13;;;;;;;;;;;10.10;99.90;;;;;;8389132;28;19974;-70
2023/10/16 20:30:15;;;;;;;;;;;10.10;99.90;;;;;;8391748;28;20384;-70
2023/10/16 20:49:28;;;;;;;;;;;9.90;99.90;;;;;;8392207;28;19958;-70
2023/10/16 20:53:30;;;;;;;;;;;9.80;99.90;;;;;;8403420;28;20391;-70
2023/10/16 20:57:31;;;;;;;;;;;9.80;99.90;;;;;;8388657;28;19986;-70
2023/10/16 21:01:33;;;;;;;;;;;9.80;99.90;;;;;;8394058;28;19925;-70
2023/10/16 21:05:35;;;;;;;;;;;9.80;99.90;;;;;;8424366;28;19931;-70
2023/10/16 21:09:37;;;;;;;;;;;9.70;99.90;;;;;;8409183;28;19932;-70
2023/10/16 21:13:39;;;;;;;;;;;9.60;99.90;;;;;;8419942;28;20291;-70
2023/10/16 21:17:40;;;;;;;;;;;9.60;99.90;;;;;;8420814;28;20367;-70
2023/10/16 21:21:42;;;;;;;;;;;9.50;99.90;;;;;;8425065;28;19928;-70
2023/10/16 21:25:44;;;;;;;;;;;9.50;99.90;;;;;;8409058;28;20031;-70
2023/10/16 21:29:45;;;;;;;;;;;9.50;99.90;;;;;;8403587;28;20456;-70
2023/10/16 21:33:47;;;;;;;;;;;9.50;99.90;;;;;;8402875;28;20338;-70
2023/10/16 21:37:49;;;;;;;;;;;9.50;99.90;;;;;;8425625;28;20341;-70
2023/10/16 21:41:51;;;;;;;;;;;9.40;99.90;;;;;;8417891;28;19927;-70
2023/10/16 21:45:53;;;;;;;;;;;9.30;99.90;;;;;;8416788;28;20003;-70
2023/10/16 21:49:55;;;;;;;;;;;9.30;99.90;;;;;;8415304;28;19934;-70
2023/10/16 21:53:57;;;;;;;;;;;9.20;99.90;;;;;;8414789;28;19924;-70
2023/10/16 21:57:59;;;;;;;;;;;9.20;99.90;;;;;;8421496;28;20019;-70
2023/10/16 22:02:03;;;;;;;;;;;9.20;99.90;;;;;;8418261;28;19924;-70
2023/10/16 22:06:05;;;;;;;;;;;9.10;99.90;;;;;;8421617;28;19928;-70
2023/10/16 22:10:09;;;;;;;;;;;9.10;99.90;;;;;;8389983;28;20338;-70
2023/10/16 22:14:20;;;;;;;;;;;9.00;99.90;;;;;;8422658;28;19924;-70
2023/10/16 22:18:22;;;;;;;;;;;9.00;99.90;;;;;;8424425;28;19935;-70
2023/10/16 22:22:23;;;;;;;;;;;9.00;99.90;;;;;;8414222;28;19924;-70
2023/10/16 22:26:25;;;;;;;;;;;9.00;99.90;;;;;;8421899;28;19946;-70
2023/10/16 22:30:27;;;;;;;;;;;9.00;99.90;;;;;;8421960;28;19951;-70
2023/10/16 22:34:28;;;;;;;;;;;9.10;99.90;;;;;;8417951;28;20359;-70
2023/10/16 22:38:31;;;;;;;;;;;9.10;99.90;;;;;;8419800;28;19924;-70
2023/10/16 22:42:32;;;;;;;;;;;9.10;99.90;;;;;;8415545;28;19931;-70
2023/10/16 22:46:34;;;;;;;;;;;9.10;99.90;;;;;;8422722;28;19985;-70
2023/10/16 22:50:36;;;;;;;;;;;9.00;99.90;;;;;;8417042;28;19924;-70
2023/10/16 22:54:38;;;;;;;;;;;9.00;99.90;;;;;;8410602;28;19977;-70
2023/10/16 22:58:39;;;;;;;;;;;9.00;99.90;;;;;;8420682;28;19931;-70
2023/10/16 23:02:41;;;;;;;;;;;9.00;99.90;;;;;;8413183;28;19932;-70
2023/10/16 23:06:49;;;;;;;;;;;9.00;99.90;;;;;;8422338;28;20045;-70
2023/10/16 23:10:52;;;;;;;;;;;9.00;99.90;;;;;;8411536;28;19928;-70
2023/10/16 23:15:01;;;;;;;;;;;9.00;99.90;;;;;;8414151;28;19924;-70
2023/10/16 23:19:08;;;;;;;;;;;9.00;99.90;;;;;;8406407;28;19924;-70
2023/10/16 23:23:10;;;;;;;;;;;9.10;99.90;;;;;;8399831;28;19928;-70
2023/10/16 23:27:12;;;;;;;;;;;9.10;99.90;;;;;;8402697;28;19935;-70
2023/10/16 23:31:14;;;;;;;;;;;9.20;99.90;;;;;;8416093;28;19935;-70
2023/10/16 23:35:21;;;;;;;;;;;9.20;99.90;;;;;;8398458;28;19924;-70
2023/10/16 23:39:29;;;;;;;;;;;9.20;99.90;;;;;;8422419;28;19924;-70
2023/10/16 23:43:45;;;;;;;;;;;9.20;99.90;;;;;;8406037;28;20309;-70
2023/10/16 23:47:48;;;;;;;;;;;9.20;99.90;;;;;;8408942;28;19931;-70
2023/10/16 23:51:55;;;;;;;;;;;9.20;99.90;;;;;;8415173;28;19935;-70
2023/10/16 23:56:00;;;;;;;;;;;9.20;99.90;;;;;;8425741;28;19924;-70
